Time;durP1;ratioP1;P1;durP2;ratioP2;P2;SDS_P1;SDS_P2;PMS_P1;PMS_P2;Temp;Humidity;BMP_temperature;BMP_pressure;BME280_temperature;BME280_humidity;BME280_pressure;Samples;Min_cycle;Max_cycle;Signal;HPM_P1;HPM_P2
2024/02/01 00:01:10;;;;;;;33.70;31.05;;;;;;;-6.31;100.00;102557.16;5003445;28;20359;-64
2024/02/01 00:03:37;;;;;;;35.13;32.65;;;;;;;-6.50;100.00;102544.84;5000609;28;20565;-64
2024/02/01 00:06:04;;;;;;;34.47;32.47;;;;;;;-6.54;100.00;102542.41;5001456;28;20137;-65
2024/02/01 00:08:31;;;;;;;34.47;32.38;;;;;;;-6.30;100.00;102543.31;4997150;28;20525;-65
2024/02/01 00:11:00;;;;;;;33.78;31.67;;;;;;;-6.05;100.00;102539.00;4991205;28;20528;-65
2024/02/01 00:13:27;;;;;;;38.88;36.20;;;;;;;-6.31;100.00;102547.66;4997581;28;20047;-65
2024/02/01 00:15:54;;;;;;;34.78;32.78;;;;;;;-6.36;100.00;102544.38;4997345;28;20054;-65
2024/02/01 00:18:21;;;;;;;34.33;32.42;;;;;;;-6.31;100.00;102545.06;4991965;28;20077;-65
2024/02/01 00:20:48;;;;;;;32.25;30.00;;;;;;;-6.33;100.00;102543.44;4994842;28;20053;-66
2024/02/01 00:23:15;;;;;;;34.35;32.25;;;;;;;-6.54;100.00;102535.50;4998625;28;20049;-66
2024/02/01 00:25:43;;;;;;;39.50;37.15;;;;;;;-6.53;100.00;102532.03;4999669;28;20424;-65
2024/02/01 00:28:11;;;;;;;38.72;36.33;;;;;;;-6.47;100.00;102529.25;4999706;28;20155;-66
2024/02/01 00:30:39;;;;;;;37.30;35.00;;;;;;;-6.49;100.00;102527.59;5001059;28;20300;-65
2024/02/01 00:33:06;;;;;;;36.08;33.78;;;;;;;-6.52;100.00;102535.44;5007051;28;20057;-65
2024/02/01 00:35:33;;;;;;;32.10;29.92;;;;;;;-6.70;100.00;102530.00;5003892;28;20056;-65
2024/02/01 00:38:00;;;;;;;34.75;32.15;;;;;;;-6.62;100.00;102534.06;5000084;28;20497;-66
2024/02/01 00:40:27;;;;;;;35.30;32.72;;;;;;;-6.92;100.00;102524.69;5000790;28;20058;-65
2024/02/01 00:42:54;;;;;;;36.95;34.22;;;;;;;-6.80;100.00;102528.59;5003060;28;20532;-65
2024/02/01 00:45:22;;;;;;;35.50;32.20;;;;;;;-6.69;100.00;102533.41;4995649;28;20061;-65
2024/02/01 00:47:49;;;;;;;31.90;29.80;;;;;;;-6.81;100.00;102528.63;4999530;28;20556;-65
2024/02/01 00:50:16;;;;;;;34.40;32.30;;;;;;;-6.95;100.00;102524.78;5007469;28;20433;-65
2024/02/01 00:52:43;;;;;;;33.33;31.23;;;;;;;-6.92;100.00;102523.84;5000573;28;20053;-65
2024/02/01 00:55:12;;;;;;;33.28;31.17;;;;;;;-6.76;100.00;102525.00;4998615;28;20561;-66
2024/02/01 00:57:39;;;;;;;34.15;31.75;;;;;;;-7.01;100.00;102524.97;4999863;28;20457;-65
2024/02/01 01:00:08;;;;;;;34.08;32.00;;;;;;;-6.92;100.00;102529.00;5001596;28;20262;-65
2024/02/01 01:02:36;;;;;;;36.13;33.70;;;;;;;-6.73;100.00;102513.75;5001683;28;20052;-65
2024/02/01 01:05:03;;;;;;;32.45;30.55;;;;;;;-6.74;100.00;102512.91;5004754;28;20520;-65
2024/02/01 01:07:30;;;;;;;30.10;28.33;;;;;;;-7.17;100.00;102509.13;4994606;28;20498;-65
2024/02/01 01:09:56;;;;;;;30.83;28.63;;;;;;;-7.01;100.00;102498.28;5004641;28;20123;-65
2024/02/01 01:12:23;;;;;;;77.35;73.15;;;;;;;-6.98;100.00;102496.44;4997642;28;20054;-65
2024/02/01 01:14:50;;;;;;;99.55;94.28;;;;;;;-6.94;100.00;102498.03;5005019;28;20137;-65
2024/02/01 01:17:20;;;;;;;59.20;56.00;;;;;;;-6.70;100.00;102493.81;4998374;28;20050;-65
2024/02/01 01:19:50;;;;;;;34.92;32.92;;;;;;;-6.76;100.00;102500.91;5006031;28;20057;-65
2024/02/01 01:22:17;;;;;;;33.35;31.25;;;;;;;-6.83;100.00;102496.84;4999505;28;20078;-65
2024/02/01 01:24:44;;;;;;;33.70;31.48;;;;;;;-6.85;100.00;102503.81;5000502;28;20441;-65
2024/02/01 01:27:11;;;;;;;32.40;30.27;;;;;;;-6.98;100.00;102495.63;5003851;28;20100;-65
2024/02/01 01:29:37;;;;;;;30.95;28.98;;;;;;;-7.11;100.00;102497.72;5003474;28;20050;-65
2024/02/01 01:32:05;;;;;;;34.03;32.03;;;;;;;-7.30;100.00;102486.28;5005459;28;20049;-65
2024/02/01 01:34:31;;;;;;;32.10;30.30;;;;;;;-7.40;100.00;102490.88;4998348;28;20084;-65
2024/02/01 01:37:00;;;;;;;49.08;46.33;;;;;;;-7.19;100.00;102486.81;5001415;28;20454;-65
2024/02/01 01:39:27;;;;;;;56.97;53.88;;;;;;;-7.31;100.00;102493.19;5002875;28;20054;-65
2024/02/01 01:41:53;;;;;;;66.47;62.88;;;;;;;-7.34;100.00;102492.44;4998285;28;20447;-65
2024/02/01 01:44:20;;;;;;;60.45;57.13;;;;;;;-7.23;100.00;102483.47;5001929;28;20046;-65
2024/02/01 01:46:50;;;;;;;65.65;62.05;;;;;;;-7.01;100.00;102475.03;5000889;28;20054;-65
2024/02/01 01:49:19;;;;;;;60.90;57.42;;;;;;;-6.94;100.00;102482.53;5005870;28;20091;-66
2024/02/01 01:51:48;;;;;;;55.40;52.10;;;;;;;-6.91;100.00;102474.69;5002725;28;20507;-63
2024/02/01 01:54:18;;;;;;;54.83;51.83;;;;;;;-7.24;100.00;102479.19;4995125;28;20046;-63
2024/02/01 01:56:46;;;;;;;35.78;33.58;;;;;;;-7.30;100.00;102478.53;5004229;28;20868;-64
2024/02/01 01:59:14;;;;;;;32.33;30.10;;;;;;;-7.07;100.00;102476.09;5001197;28;20437;-64
2024/02/01 02:01:44;;;;;;;33.20;31.30;;;;;;;-6.86;100.00;102479.72;4997267;28;20057;-64
2024/02/01 02:04:11;;;;;;;33.97;31.95;;;;;;;-6.94;100.00;102473.94;4993049;28;20050;-64
2024/02/01 02:06:38;;;;;;;32.50;30.30;;;;;;;-6.96;100.00;102465.38;5002106;28;20225;-64
2024/02/01 02:09:12;;;;;;;33.25;31.30;;;;;;;-7.16;100.00;102468.63;4996851;28;20061;-64
2024/02/01 02:11:43;;;;;;;33.95;31.55;;;;;;;-7.08;100.00;102455.44;4995793;28;20060;-64
2024/02/01 02:14:15;;;;;;;32.83;30.95;;;;;;;-7.25;100.00;102458.59;4994240;28;20065;-64
2024/02/01 02:16:42;;;;;;;31.25;29.45;;;;;;;-7.14;100.00;102453.91;5002826;28;20108;-64
2024/02/01 02:19:12;;;;;;;68.03;64.32;;;;;;;-7.40;100.00;102453.00;4996088;28;20054;-64
2024/02/01 02:21:46;;;;;;;67.85;63.90;;;;;;;-7.55;100.00;102448.31;5002785;28;20053;-64
2024/02/01 02:24:14;;;;;;;60.95;57.72;;;;;;;-7.52;100.00;102439.63;5000027;28;20051;-64
2024/02/01 02:26:41;;;;;;;33.88;31.88;;;;;;;-7.63;100.00;102433.06;5001739;28;20046;-63
2024/02/01 02:29:08;;;;;;;34.85;32.58;;;;;;;-7.52;100.00;102435.31;5001247;28;20053;-64
2024/02/01 02:31:35;;;;;;;31.45;29.55;;;;;;;-7.53;100.00;102435.34;4996524;28;20050;-63
2024/02/01 02:34:05;;;;;;;32.78;30.92;;;;;;;-7.61;100.00;102433.84;4998862;28;20150;-64
2024/02/01 02:36:32;;;;;;;31.70;29.60;;;;;;;-7.37;100.00;102436.56;4999257;28;20054;-64
2024/02/01 02:39:01;;;;;;;33.10;31.20;;;;;;;-7.31;100.00;102438.97;4999048;28;20046;-64
2024/02/01 02:41:28;;;;;;;34.17;31.42;;;;;;;-7.24;100.00;102434.44;5000287;28;20498;-63
2024/02/01 02:43:55;;;;;;;33.42;31.33;;;;;;;-7.24;100.00;102431.88;4999370;28;20421;-63
2024/02/01 02:46:24;;;;;;;34.15;32.35;;;;;;;-7.35;100.00;102426.19;5000154;28;20050;-64
2024/02/01 02:48:51;;;;;;;35.88;33.70;;;;;;;-7.28;100.00;102430.28;4996150;28;20129;-64
2024/02/01 02:51:18;;;;;;;33.25;31.55;;;;;;;-7.16;100.00;102437.63;5002018;28;20100;-64
2024/02/01 02:53:45;;;;;;;33.95;32.15;;;;;;;-7.11;100.00;102432.31;5002584;28;20425;-64
2024/02/01 02:56:13;;;;;;;36.58;34.25;;;;;;;-7.21;100.00;102434.34;5001480;28;20433;-64
2024/02/01 02:58:40;;;;;;;31.73;30.08;;;;;;;-7.12;100.00;102430.63;4995232;28;20050;-63
2024/02/01 03:01:08;;;;;;;48.22;45.83;;;;;;;-6.99;100.00;102430.19;5002059;28;20506;-64
2024/02/01 03:03:40;;;;;;;61.00;57.88;;;;;;;-6.87;100.00;102428.06;4996020;28;20045;-64
2024/02/01 03:06:07;;;;;;;58.50;55.45;;;;;;;-7.03;100.00;102428.56;4999397;28;20115;-64
2024/02/01 03:08:34;;;;;;;50.72;47.85;;;;;;;-6.86;100.00;102422.88;4999032;28;20501;-64
2024/02/01 03:11:02;;;;;;;46.25;43.65;;;;;;;-6.98;100.00;102431.03;4990264;28;20061;-64
2024/02/01 03:13:30;;;;;;;50.25;47.35;;;;;;;-6.90;100.00;102421.25;4999373;28;20056;-64
2024/02/01 03:15:57;;;;;;;45.25;42.90;;;;;;;-6.90;100.00;102418.69;4999973;28;20045;-64
2024/02/01 03:18:24;;;;;;;32.67;30.77;;;;;;;-7.07;100.00;102415.84;5000020;28;20061;-64
2024/02/01 03:20:51;;;;;;;31.85;30.15;;;;;;;-7.23;100.00;102418.06;5001763;28;20050;-64
2024/02/01 03:23:18;;;;;;;33.08;31.17;;;;;;;-7.31;100.00;102407.16;5000507;28;20042;-64
2024/02/01 03:25:45;;;;;;;65.47;61.97;;;;;;;-7.51;100.00;102406.03;4997335;28;20046;-64
2024/02/01 03:28:13;;;;;;;53.33;50.45;;;;;;;-7.62;100.00;102411.53;5000401;28;20060;-64
2024/02/01 03:30:46;;;;;;;55.17;52.10;;;;;;;-7.70;100.00;102407.50;5000939;28;20049;-64
2024/02/01 03:33:13;;;;;;;60.10;56.70;;;;;;;-7.92;100.00;102412.47;4996303;28;20111;-64
2024/02/01 03:35:42;;;;;;;58.00;54.28;;;;;;;-7.80;100.00;102406.94;4998633;28;20500;-63
2024/02/01 03:38:14;;;;;;;58.28;55.17;;;;;;;-7.61;100.00;102410.63;4996047;28;20050;-64
2024/02/01 03:40:42;;;;;;;38.30;36.10;;;;;;;-7.49;100.00;102408.56;5001455;28;20100;-64
2024/02/01 03:43:11;;;;;;;29.45;27.55;;;;;;;-7.51;100.00;102407.75;5002267;28;20057;-64
2024/02/01 03:45:38;;;;;;;30.48;28.45;;;;;;;-7.56;100.00;102402.75;5003036;28;20507;-64
2024/02/01 03:48:08;;;;;;;29.80;28.00;;;;;;;-7.27;100.00;102390.66;5003198;28;20057;-66
2024/02/01 03:50:38;;;;;;;43.60;41.20;;;;;;;-7.35;100.00;102390.91;5001881;28;20053;-65
2024/02/01 03:53:10;;;;;;;43.13;40.53;;;;;;;-7.19;100.00;102397.25;4999333;28;20046;-64
2024/02/01 03:55:37;;;;;;;46.50;43.90;;;;;;;-7.04;100.00;102393.31;4998188;28;20053;-65
2024/02/01 03:58:05;;;;;;;47.10;44.35;;;;;;;-6.98;100.00;102398.28;4999823;28;20049;-65
2024/02/01 04:00:32;;;;;;;46.15;43.45;;;;;;;-6.79;100.00;102393.31;5001533;28;20059;-65
2024/02/01 04:03:03;;;;;;;42.42;39.92;;;;;;;-6.79;100.00;102395.06;5002800;28;20046;-64
2024/02/01 04:05:36;;;;;;;31.65;29.83;;;;;;;-6.73;100.00;102393.09;5002142;28;20057;-64
2024/02/01 04:08:06;;;;;;;32.08;30.17;;;;;;;-6.90;100.00;102387.66;5000086;28;20339;-65
2024/02/01 04:10:33;;;;;;;35.90;33.40;;;;;;;-6.77;100.00;102393.28;4997137;28;20080;-64
2024/02/01 04:12:59;;;;;;;34.90;32.90;;;;;;;-6.77;100.00;102385.53;4998804;28;20085;-65
2024/02/01 04:15:26;;;;;;;28.73;27.02;;;;;;;-6.81;100.00;102386.50;5001901;28;20065;-65
2024/02/01 04:17:53;;;;;;;28.85;26.95;;;;;;;-6.83;100.00;102376.25;5000255;28;20053;-64
2024/02/01 04:20:20;;;;;;;38.92;36.67;;;;;;;-6.48;100.00;102374.97;5000022;28;20533;-64
2024/02/01 04:22:53;;;;;;;42.97;40.55;;;;;;;-6.52;100.00;102375.16;5003427;28;20060;-64
2024/02/01 04:25:20;;;;;;;42.60;40.00;;;;;;;-6.34;100.00;102376.25;4996533;28;20076;-65
2024/02/01 04:27:49;;;;;;;41.00;38.60;;;;;;;-6.75;100.00;102379.38;4996517;28;20404;-64
2024/02/01 04:30:17;;;;;;;37.13;35.03;;;;;;;-6.78;100.00;102363.16;5002351;28;20054;-64
2024/02/01 04:32:45;;;;;;;39.22;36.83;;;;;;;-6.70;100.00;102372.31;5006647;28;20517;-63
2024/02/01 04:35:14;;;;;;;42.53;39.83;;;;;;;-6.57;100.00;102367.56;5004625;28;20054;-65
2024/02/01 04:37:43;;;;;;;42.40;39.90;;;;;;;-6.68;100.00;102367.13;5001800;28;20056;-63
2024/02/01 04:40:18;;;;;;;38.28;36.08;;;;;;;-7.14;100.00;102366.09;5003317;28;20517;-64
2024/02/01 04:42:51;;;;;;;35.85;33.75;;;;;;;-7.14;100.00;102366.09;5000301;28;20061;-64
2024/02/01 04:45:20;;;;;;;39.03;36.38;;;;;;;-6.94;100.00;102368.84;5007797;28;20140;-65
2024/02/01 04:47:47;;;;;;;39.55;37.05;;;;;;;-7.00;100.00;102371.66;5005847;28;20617;-64
2024/02/01 04:50:14;;;;;;;41.10;38.75;;;;;;;-6.81;100.00;102376.19;5007739;28;20057;-64
2024/02/01 04:52:41;;;;;;;30.80;28.45;;;;;;;-7.01;100.00;102369.97;5001699;28;20050;-64
2024/02/01 04:55:10;;;;;;;28.13;26.42;;;;;;;-6.83;100.00;102373.66;5001497;28;20072;-65
2024/02/01 04:57:38;;;;;;;29.85;28.05;;;;;;;-7.07;100.00;102370.19;5006499;28;20414;-63
2024/02/01 05:00:13;;;;;;;49.95;46.15;;;;;;;-0.58;100.00;102376.81;5009701;28;20123;-63
2024/02/01 05:02:41;;;;;;;30.75;28.85;;;;;;;-7.04;100.00;102364.91;5002713;28;20077;-64
2024/02/01 05:05:09;;;;;;;27.90;26.35;;;;;;;-7.24;100.00;102365.56;4999159;28;20041;-64
2024/02/01 05:07:36;;;;;;;28.05;26.35;;;;;;;-7.07;100.00;102372.75;4999054;28;20054;-64
2024/02/01 05:10:04;;;;;;;29.70;27.85;;;;;;;-7.34;100.00;102366.78;5014489;28;20058;-65
2024/02/01 05:12:33;;;;;;;32.42;30.42;;;;;;;-7.29;100.00;102367.47;5012418;28;20313;-64
2024/02/01 05:15:00;;;;;;;29.27;27.38;;;;;;;-7.08;100.00;102370.22;5019672;28;20536;-63
2024/02/01 05:17:28;;;;;;;29.35;27.48;;;;;;;-7.25;100.00;102383.72;5020167;28;20057;-65
2024/02/01 05:19:58;;;;;;;27.27;25.58;;;;;;;-7.10;100.00;102375.44;5025103;28;20064;-63
2024/02/01 05:22:27;;;;;;;27.60;25.90;;;;;;;-7.22;100.00;102373.28;5019193;28;20057;-65
2024/02/01 05:24:54;;;;;;;29.52;27.63;;;;;;;-7.10;100.00;102369.44;5018206;28;20049;-64
2024/02/01 05:27:22;;;;;;;28.23;26.48;;;;;;;-7.24;100.00;102372.47;5016746;28;20061;-66
2024/02/01 05:29:50;;;;;;;27.98;26.38;;;;;;;-7.12;100.00;102373.81;5023297;28;20045;-65
2024/02/01 05:32:18;;;;;;;33.00;31.30;;;;;;;-7.19;100.00;102371.44;5019388;28;20119;-65
2024/02/01 05:34:47;;;;;;;29.88;28.25;;;;;;;-7.30;100.00;102370.94;5023369;28;20505;-65
2024/02/01 05:37:14;;;;;;;27.95;25.95;;;;;;;-7.26;100.00;102372.53;5024317;28;20440;-64
2024/02/01 05:39:44;;;;;;;26.65;25.25;;;;;;;-7.48;100.00;102374.94;5025158;28;20064;-65
2024/02/01 05:42:13;;;;;;;27.10;25.58;;;;;;;-7.69;100.00;102373.06;5013744;28;20507;-65
2024/02/01 05:44:40;;;;;;;25.73;24.33;;;;;;;-7.84;100.00;102372.66;5019032;28;20050;-65
2024/02/01 05:47:09;;;;;;;28.23;26.60;;;;;;;-8.04;100.00;102363.81;5016062;28;20081;-65
2024/02/01 05:49:36;;;;;;;29.02;27.42;;;;;;;-7.93;100.00;102366.91;5021319;28;20467;-64
2024/02/01 05:52:05;;;;;;;28.33;26.48;;;;;;;-7.92;100.00;102360.88;5020732;28;20512;-65
2024/02/01 05:54:32;;;;;;;27.23;25.77;;;;;;;-7.50;100.00;102368.16;5020199;28;20497;-65
2024/02/01 05:57:00;;;;;;;31.50;29.70;;;;;;;-6.91;100.00;102371.31;5022165;28;20061;-66
2024/02/01 05:59:26;;;;;;;31.25;29.23;;;;;;;-6.78;100.00;102365.72;5020869;28;20088;-66
2024/02/01 06:01:53;;;;;;;27.42;25.92;;;;;;;-6.80;100.00;102365.81;5023249;28;20056;-64
2024/02/01 06:04:22;;;;;;;27.40;25.90;;;;;;;-6.25;100.00;102350.03;5023068;28;20443;-64
2024/02/01 06:06:49;;;;;;;33.20;31.30;;;;;;;-6.14;100.00;102352.19;5023432;28;20061;-65
2024/02/01 06:09:16;;;;;;;28.77;27.08;;;;;;;-6.00;100.00;102349.94;5024223;28;20088;-65
2024/02/01 06:11:44;;;;;;;26.88;25.27;;;;;;;-5.82;100.00;102348.34;5023418;28;20049;-66
2024/02/01 06:14:13;;;;;;;28.85;27.25;;;;;;;-5.44;100.00;102351.19;5019105;28;20516;-67
2024/02/01 06:16:41;;;;;;;31.77;29.98;;;;;;;-5.32;100.00;102348.06;5024180;28;20045;-66
2024/02/01 06:19:08;;;;;;;33.00;30.60;;;;;;;-4.88;100.00;102355.72;5022696;28;20065;-64
2024/02/01 06:21:36;;;;;;;31.92;30.23;;;;;;;-4.70;100.00;102354.06;5024726;28;20131;-64
2024/02/01 06:24:04;;;;;;;30.92;29.23;;;;;;;-4.65;100.00;102349.53;5023277;28;20054;-65
2024/02/01 06:26:31;;;;;;;31.88;29.85;;;;;;;-4.44;100.00;102343.41;5024062;28;20099;-65
2024/02/01 06:29:07;;;;;;;42.25;37.78;;;;;;;-3.97;100.00;102352.50;5024261;28;20056;-65
2024/02/01 06:31:37;;;;;;;33.72;31.73;;;;;;;-3.48;100.00;102360.53;5022372;28;20053;-65
2024/02/01 06:34:05;;;;;;;29.52;27.85;;;;;;;-3.28;100.00;102362.16;5016744;28;20069;-65
2024/02/01 06:36:35;;;;;;;29.42;27.75;;;;;;;-3.31;100.00;102354.53;5020595;28;20132;-64
2024/02/01 06:39:16;;;;;;;27.10;25.60;;;;;;;-3.30;100.00;102353.59;5018319;28;20559;-64
2024/02/01 06:41:51;;;;;;;27.08;25.48;;;;;;;-2.90;100.00;102351.63;5012720;28;20069;-65
2024/02/01 06:44:24;;;;;;;27.00;25.40;;;;;;;-2.65;100.00;102352.03;5015595;28;20482;-67
2024/02/01 06:50:09;;;;;;;30.13;28.10;;;;;;;-2.91;100.00;102355.13;5004148;28;20057;-65
2024/02/01 06:52:39;;;;;;;28.52;26.83;;;;;;;-2.12;100.00;102353.53;5023804;28;20076;-65
2024/02/01 06:58:03;;;;;;;31.65;28.92;;;;;;;-1.35;100.00;102349.22;5017401;28;20064;-65
2024/02/01 07:00:40;;;;;;;29.95;28.05;;;;;;;-1.29;100.00;102335.84;5018659;28;20069;-65
2024/02/01 07:03:13;;;;;;;30.15;28.35;;;;;;;-1.02;100.00;102337.75;5020464;28;20372;-65
2024/02/01 07:08:34;;;;;;;30.27;28.38;;;;;;;-0.75;100.00;102327.44;5022880;28;20528;-65
2024/02/01 07:11:14;;;;;;;28.90;27.10;;;;;;;-0.41;100.00;102320.16;5015229;28;20055;-65
2024/02/01 07:13:57;;;;;;;31.30;29.40;;;;;;;-0.54;100.00;102320.91;5006206;28;20497;-66
2024/02/01 07:16:35;;;;;;;34.78;32.35;;;;;;;-0.38;100.00;102312.97;5016415;28;20181;-66
2024/02/01 07:19:12;;;;;;;33.42;31.42;;;;;;;-0.11;100.00;102312.16;5018044;28;20077;-70
2024/02/01 07:22:00;;;;;;;27.80;25.98;;;;;;;-0.11;100.00;102307.78;5015177;28;20108;-66
2024/02/01 07:24:46;;;;;;;25.58;23.85;;;;;;;0.47;100.00;102300.53;5013908;28;20050;-66
2024/02/01 07:57:51;;;;;;;25.92;24.33;;;;;;;4.08;100.00;102246.69;5016036;28;20111;-73
2024/02/01 08:00:27;;;;;;;28.83;27.02;;;;;;;4.53;100.00;102246.44;5022491;28;20045;-71
2024/02/01 08:03:03;;;;;;;27.98;26.48;;;;;;;4.75;100.00;102247.28;5023782;28;20055;-73
2024/02/01 08:08:16;;;;;;;27.38;25.83;;;;;;;6.32;100.00;102232.50;5024592;28;20060;-75
2024/02/01 08:10:43;;;;;;;26.95;25.42;;;;;;;5.23;100.00;102223.81;5023873;28;20046;-75
2024/02/01 08:13:12;;;;;;;28.63;25.98;;;;;;;5.61;100.00;102231.94;5019074;28;20509;-75
2024/02/01 08:15:42;;;;;;;26.05;24.25;;;;;;;6.16;100.00;102227.81;5024833;28;20046;-75
2024/02/01 08:18:10;;;;;;;32.70;30.48;;;;;;;6.00;100.00;102232.00;5025173;28;20052;-75
2024/02/01 08:20:37;;;;;;;29.52;27.63;;;;;;;6.29;100.00;102235.44;5023881;28;20053;-74
2024/02/01 08:23:04;;;;;;;32.50;30.50;;;;;;;6.99;100.00;102228.06;5024030;28;20435;-75
2024/02/01 08:25:31;;;;;;;26.67;24.73;;;;;;;7.08;100.00;102216.59;5023220;28;20057;-76
2024/02/01 08:27:58;;;;;;;25.65;23.75;;;;;;;7.71;100.00;102223.72;5007363;28;20506;-75
2024/02/01 08:30:30;;;;;;;35.15;32.95;;;;;;;8.03;100.00;102222.38;5022078;28;20136;-75
2024/02/01 08:33:03;;;;;;;33.77;31.97;;;;;;;8.53;100.00;102221.78;5018275;28;20065;-75
2024/02/01 08:35:33;;;;;;;;;;;;;;;8.75;100.00;102222.25;5021651;28;20132;-76
2024/02/01 08:38:01;;;;;;;30.52;28.58;;;;;;;9.31;100.00;102213.72;5010530;28;20015;-75
2024/02/01 08:40:28;;;;;;;29.60;27.70;;;;;;;9.18;100.00;102213.34;5020648;28;20042;-75
2024/02/01 08:42:57;;;;;;;37.22;34.72;;;;;;;9.89;100.00;102219.13;5012519;28;20068;-75
2024/02/01 08:45:27;;;;;;;31.55;29.55;;;;;;;10.43;100.00;102220.31;5020167;28;20055;-75
2024/02/01 08:47:54;;;;;;;32.17;29.90;;;;;;;10.84;98.18;102206.94;5010596;28;20066;-75
2024/02/01 08:50:22;;;;;;;33.17;30.98;;;;;;;10.20;98.77;102209.53;5014831;28;20042;-76
2024/02/01 08:52:49;;;;;;;32.05;30.05;;;;;;;9.40;100.00;102210.09;5019888;28;20058;-75
2024/02/01 08:55:17;;;;;;;39.38;36.95;;;;;;;10.06;98.50;102204.88;5025131;28;20060;-75
2024/02/01 08:57:45;;;;;;;35.85;33.75;;;;;;;11.28;83.57;102201.09;5025009;28;20053;-75
2024/02/01 09:00:25;;;;;;;29.60;27.70;;;;;;;9.61;75.90;102201.69;5014951;28;20050;-76
2024/02/01 09:05:40;;;;;;;44.35;41.72;;;;;;;10.83;63.14;102191.97;5020447;28;20049;-75
2024/02/01 09:08:08;;;;;;;43.97;41.08;;;;;;;10.77;69.27;102192.66;5019327;28;20054;-76
2024/02/01 09:10:37;;;;;;;41.00;38.30;;;;;;;10.39;65.95;102191.59;5021970;28;20053;-75
2024/02/01 09:13:04;;;;;;;42.33;39.63;;;;;;;9.09;72.22;102180.66;5014007;28;20050;-75
2024/02/01 09:15:32;;;;;;;37.38;34.97;;;;;;;11.39;68.07;102171.44;5021236;28;20416;-76
2024/02/01 09:17:59;;;;;;;29.48;27.50;;;;;;;9.09;64.31;102167.41;5015033;28;20521;-73
2024/02/01 09:20:26;;;;;;;36.05;33.65;;;;;;;9.84;73.73;102161.25;5022835;28;20099;-73
2024/02/01 09:22:57;;;;;;;55.00;51.70;;;;;;;11.24;68.52;102162.56;5021196;28;20049;-74
2024/02/01 09:25:26;;;;;;;46.05;43.25;;;;;;;11.73;61.83;102159.56;5022199;28;20049;-74
2024/02/01 09:27:54;;;;;;;43.25;40.45;;;;;;;12.95;60.43;102154.84;5020838;28;20056;-74
2024/02/01 09:30:26;;;;;;;42.60;40.00;;;;;;;11.63;64.53;102148.34;5020764;28;20052;-73
2024/02/01 09:32:54;;;;;;;47.00;43.70;;;;;;;11.72;59.43;102135.78;5022424;28;20128;-73
2024/02/01 09:35:23;;;;;;;46.65;43.83;;;;;;;8.94;73.64;102131.91;5023810;28;20041;-73
2024/02/01 09:37:51;;;;;;;40.70;38.08;;;;;;;8.88;77.30;102124.63;5026149;28;20049;-73
2024/02/01 09:40:20;;;;;;;45.08;42.08;;;;;;;11.26;67.42;102125.97;5022463;28;20084;-81
2024/02/01 09:42:51;;;;;;;42.13;39.42;;;;;;;9.35;70.84;102122.25;5028576;28;20057;-73
2024/02/01 09:45:19;;;;;;;43.65;40.85;;;;;;;11.78;66.10;102113.78;5019271;28;20041;-74
2024/02/01 09:47:47;;;;;;;50.70;47.80;;;;;;;9.48;85.04;102118.28;5026911;28;20083;-74
2024/02/01 09:50:16;;;;;;;52.03;48.55;;;;;;;9.79;95.22;102108.66;5027509;28;20053;-74
2024/02/01 09:52:50;;;;;;;43.55;40.75;;;;;;;10.12;75.98;102097.19;5027437;28;20480;-74
2024/02/01 09:55:20;;;;;;;46.65;43.85;;;;;;;9.67;76.17;102102.03;5025737;28;20056;-74
2024/02/01 09:57:48;;;;;;;49.67;46.72;;;;;;;9.78;99.23;102098.25;5025237;28;20115;-74
2024/02/01 10:00:18;;;;;;;47.42;44.53;;;;;;;10.23;80.67;102091.53;5025716;28;20053;-74
2024/02/01 10:02:51;;;;;;;49.28;46.38;;;;;;;10.06;100.00;102085.41;5024829;28;20060;-73
2024/02/01 10:05:18;;;;;;;44.47;41.67;;;;;;;10.69;68.82;102079.25;5020377;28;20136;-73
2024/02/01 10:07:45;;;;;;;43.65;40.85;;;;;;;10.53;75.27;102077.53;5023884;28;20839;-74
2024/02/01 10:10:15;;;;;;;51.63;48.25;;;;;;;10.63;57.79;102071.16;5027242;28;20111;-73
2024/02/01 10:12:44;;;;;;;40.03;37.22;;;;;;;9.81;60.27;102066.06;5027919;28;20140;-73
2024/02/01 10:15:12;;;;;;;37.25;34.75;;;;;;;9.23;61.94;102067.88;5020623;28;20128;-74
2024/02/01 10:17:46;;;;;;;51.83;48.53;;;;;;;10.21;58.48;102067.78;5027532;28;20057;-73
2024/02/01 10:20:37;;;;;;;48.78;45.58;;;;;;;10.24;60.14;102056.00;5020183;28;20187;-73
2024/02/01 10:23:05;;;;;;;43.53;40.53;;;;;;;9.97;62.60;102052.75;5024869;28;20082;-74
2024/02/01 10:25:38;;;;;;;42.05;39.15;;;;;;;10.86;60.31;102058.75;5016003;28;20052;-75
2024/02/01 10:28:08;;;;;;;38.08;35.50;;;;;;;9.51;86.23;102054.31;5025752;28;20073;-74
2024/02/01 10:30:37;;;;;;;37.10;34.40;;;;;;;8.97;99.48;102044.16;5021456;28;20057;-74
2024/02/01 10:33:05;;;;;;;37.35;34.75;;;;;;;10.00;72.13;102041.78;5024498;28;20045;-74
2024/02/01 10:35:32;;;;;;;31.88;29.58;;;;;;;8.70;83.58;102045.25;5025987;28;20045;-74
2024/02/01 10:38:11;;;;;;;32.30;29.90;;;;;;;9.63;56.57;102045.84;5024019;28;20069;-73
2024/02/01 10:40:45;;;;;;;29.85;27.63;;;;;;;10.60;55.74;102032.47;5025101;28;20100;-74
2024/02/01 10:43:18;;;;;;;32.33;29.88;;;;;;;10.45;59.13;102032.38;5026033;28;20128;-74
2024/02/01 10:45:50;;;;;;;27.98;25.88;;;;;;;11.53;59.23;102028.00;5021196;28;20053;-74
2024/02/01 10:48:19;;;;;;;33.25;30.88;;;;;;;11.68;51.16;102016.38;5021931;28;20119;-74
2024/02/01 10:50:47;;;;;;;34.63;32.13;;;;;;;11.03;49.15;102018.78;5024426;28;20477;-74
2024/02/01 10:53:16;;;;;;;33.42;30.15;;;;;;;10.73;52.40;102015.97;5025568;28;20057;-74
2024/02/01 10:55:48;;;;;;;30.38;28.08;;;;;;;11.38;58.00;102017.34;5022690;28;20433;-74
2024/02/01 10:58:19;;;;;;;35.27;32.87;;;;;;;9.45;52.80;102017.84;5025497;28;20115;-74
2024/02/01 11:00:48;;;;;;;32.20;30.02;;;;;;;9.45;76.48;101997.47;5021152;28;20060;-74
2024/02/01 11:03:16;;;;;;;30.98;28.77;;;;;;;10.75;71.77;101996.19;5024627;28;20064;-72
2024/02/01 11:05:44;;;;;;;29.77;27.67;;;;;;;13.01;48.29;101988.75;5019897;28;20501;-72
2024/02/01 11:08:20;;;;;;;31.17;28.88;;;;;;;12.57;51.04;101983.56;5016665;28;20515;-72
2024/02/01 11:10:54;;;;;;;31.20;29.00;;;;;;;11.76;48.36;101982.72;5008776;28;20520;-73
2024/02/01 11:13:29;;;;;;;34.70;32.50;;;;;;;9.61;50.79;101975.38;5018370;28;20053;-73
2024/02/01 11:15:58;;;;;;;33.78;31.58;;;;;;;9.90;69.18;101968.69;5022466;28;20045;-73
2024/02/01 11:18:27;;;;;;;34.47;32.17;;;;;;;10.12;57.85;101965.28;5021196;28;20041;-74
2024/02/01 11:20:56;;;;;;;32.78;30.48;;;;;;;11.50;60.48;101962.69;5022929;28;20049;-72
2024/02/01 11:23:23;;;;;;;30.83;28.52;;;;;;;11.11;57.83;101960.22;5024063;28;20061;-71
2024/02/01 11:25:56;;;;;;;51.85;48.70;;;;;;;11.36;56.29;101961.66;5021819;28;20065;-72
2024/02/01 11:28:28;;;;;;;56.08;52.67;;;;;;;11.65;53.12;101955.53;5023572;28;20052;-72
2024/02/01 11:31:01;;;;;;;47.75;44.75;;;;;;;10.57;55.37;101949.66;5024482;28;20414;-72
2024/02/01 11:33:29;;;;;;;47.15;44.03;;;;;;;11.94;47.71;101947.75;5023242;28;20038;-71
2024/02/01 11:35:59;;;;;;;51.50;48.30;;;;;;;9.77;53.16;101940.00;5022020;28;20063;-73
2024/02/01 11:38:28;;;;;;;54.65;51.25;;;;;;;13.35;50.47;101938.38;5023509;28;20045;-75
2024/02/01 11:40:55;;;;;;;45.50;42.65;;;;;;;10.20;57.69;101938.69;5023978;28;20049;-74
2024/02/01 11:43:22;;;;;;;49.33;46.22;;;;;;;10.55;60.33;101936.53;5026035;28;20722;-74
2024/02/01 11:45:55;;;;;;;50.60;47.50;;;;;;;11.69;62.75;101921.41;5020007;28;20111;-74
2024/02/01 11:48:24;;;;;;;42.80;39.97;;;;;;;10.62;58.29;101928.69;5013551;28;20065;-74
2024/02/01 11:50:59;;;;;;;45.72;42.17;;;;;;;10.69;52.73;101919.84;5008264;28;20050;-75
2024/02/01 11:53:27;;;;;;;42.63;39.83;;;;;;;10.54;54.84;101925.06;5020737;28;20557;-74
2024/02/01 11:55:55;;;;;;;40.78;37.97;;;;;;;11.38;50.25;101911.75;5013210;28;20045;-74
2024/02/01 11:58:24;;;;;;;39.10;36.40;;;;;;;11.50;60.98;101906.81;5020953;28;20460;-74